createdAt,value
2022-07-30T00:00:54.224Z,100.00
2022-07-30T00:03:22.188Z,100.00
2022-07-30T00:05:50.074Z,100.00
2022-07-30T00:08:17.575Z,100.00
2022-07-30T00:10:45.121Z,100.00
2022-07-30T00:13:14.265Z,100.00
2022-07-30T00:15:43.329Z,100.00
2022-07-30T00:18:11.945Z,100.00
2022-07-30T00:20:42.779Z,100.00
2022-07-30T00:23:12.045Z,100.00
2022-07-30T00:25:39.589Z,100.00
2022-07-30T00:28:07.857Z,100.00
2022-07-30T00:30:35.429Z,100.00
2022-07-30T00:33:04.805Z,100.00
2022-07-30T00:35:35.879Z,100.00
2022-07-30T00:38:05.518Z,100.00
2022-07-30T00:40:33.100Z,100.00
2022-07-30T00:43:00.709Z,100.00
2022-07-30T00:45:28.623Z,100.00
2022-07-30T00:47:56.174Z,100.00
2022-07-30T00:50:25.060Z,100.00
2022-07-30T00:52:52.634Z,100.00
2022-07-30T00:55:20.374Z,100.00
2022-07-30T00:57:47.934Z,100.00
2022-07-30T01:00:17.257Z,100.00
2022-07-30T01:02:44.861Z,100.00
2022-07-30T01:05:13.145Z,100.00
2022-07-30T01:07:45.042Z,100.00
2022-07-30T01:10:14.210Z,100.00
2022-07-30T01:12:42.503Z,100.00
2022-07-30T01:15:11.223Z,100.00
2022-07-30T01:17:39.026Z,100.00
2022-07-30T01:20:10.968Z,100.00
2022-07-30T01:22:48.973Z,100.00
2022-07-30T01:25:20.213Z,100.00
2022-07-30T01:27:51.871Z,100.00
2022-07-30T01:30:22.144Z,100.00
2022-07-30T01:32:50.569Z,100.00
2022-07-30T01:35:19.858Z,100.00
2022-07-30T01:37:48.054Z,100.00
2022-07-30T01:40:16.091Z,100.00
2022-07-30T01:42:47.306Z,100.00
2022-07-30T01:45:16.957Z,100.00
2022-07-30T01:47:44.775Z,100.00
2022-07-30T01:50:14.304Z,100.00
2022-07-30T01:52:44.644Z,100.00
2022-07-30T01:55:18.179Z,100.00
2022-07-30T01:57:46.745Z,100.00
2022-07-30T02:00:16.141Z,100.00
2022-07-30T02:02:49.414Z,100.00
2022-07-30T02:05:19.806Z,100.00
2022-07-30T02:07:53.808Z,100.00
2022-07-30T02:10:29.443Z,100.00
2022-07-30T02:13:02.281Z,100.00
2022-07-30T02:15:35.502Z,100.00
2022-07-30T02:18:05.513Z,100.00
2022-07-30T02:20:35.848Z,100.00
2022-07-30T02:23:08.040Z,100.00
2022-07-30T02:25:37.037Z,100.00
2022-07-30T02:28:17.808Z,100.00
2022-07-30T02:30:49.615Z,100.00
2022-07-30T02:33:18.471Z,100.00
2022-07-30T02:35:46.395Z,100.00
2022-07-30T02:38:16.930Z,100.00
2022-07-30T02:40:45.265Z,100.00
2022-07-30T02:43:13.022Z,100.00
2022-07-30T02:45:41.528Z,100.00
2022-07-30T02:48:11.449Z,100.00
2022-07-30T02:50:59.436Z,100.00
2022-07-30T02:53:28.211Z,100.00
2022-07-30T02:55:57.191Z,100.00
2022-07-30T02:58:26.266Z,100.00
2022-07-30T03:00:55.996Z,100.00
2022-07-30T03:03:28.919Z,100.00
2022-07-30T03:05:57.620Z,100.00
2022-07-30T03:08:27.762Z,100.00
2022-07-30T03:10:56.257Z,100.00
2022-07-30T03:13:25.805Z,100.00
2022-07-30T03:15:55.888Z,100.00
2022-07-30T03:18:25.778Z,100.00
2022-07-30T03:20:56.341Z,100.00
2022-07-30T03:23:24.589Z,100.00
2022-07-30T03:25:56.102Z,100.00
2022-07-30T03:28:24.634Z,100.00
2022-07-30T03:30:52.548Z,100.00
2022-07-30T03:33:20.418Z,100.00
2022-07-30T03:35:51.222Z,100.00
2022-07-30T03:38:19.347Z,100.00
2022-07-30T03:40:47.285Z,100.00
2022-07-30T03:43:32.785Z,100.00
2022-07-30T03:46:04.118Z,100.00
2022-07-30T03:48:35.511Z,100.00
2022-07-30T03:51:07.533Z,100.00
2022-07-30T03:53:35.230Z,100.00
2022-07-30T03:56:25.626Z,100.00
2022-07-30T03:59:02.939Z,100.00
2022-07-30T04:01:30.662Z,100.00
2022-07-30T04:04:07.378Z,100.00
2022-07-30T04:06:39.656Z,100.00
2022-07-30T04:09:08.339Z,100.00
2022-07-30T04:11:40.759Z,100.00
2022-07-30T04:14:12.109Z,100.00
2022-07-30T04:16:47.013Z,100.00
2022-07-30T04:19:21.309Z,100.00
2022-07-30T04:21:52.034Z,100.00
2022-07-30T04:24:20.048Z,100.00
2022-07-30T04:26:48.861Z,100.00
2022-07-30T04:29:21.368Z,100.00
2022-07-30T04:31:52.740Z,100.00
2022-07-30T04:34:29.405Z,100.00
2022-07-30T04:36:59.252Z,100.00
2022-07-30T04:39:29.414Z,100.00
2022-07-30T04:41:56.938Z,100.00
2022-07-30T04:44:35.618Z,100.00
2022-07-30T04:47:22.871Z,100.00
2022-07-30T04:50:07.259Z,100.00
2022-07-30T04:52:36.964Z,100.00
2022-07-30T04:55:08.285Z,100.00
2022-07-30T04:57:38.937Z,100.00
2022-07-30T05:00:07.631Z,100.00
2022-07-30T05:02:39.197Z,100.00
2022-07-30T05:05:08.513Z,100.00
2022-07-30T05:07:38.116Z,100.00
2022-07-30T05:10:07.293Z,100.00
2022-07-30T05:12:37.450Z,100.00
2022-07-30T05:15:06.136Z,100.00
2022-07-30T05:17:33.903Z,100.00
2022-07-30T05:20:04.476Z,100.00
2022-07-30T05:22:50.817Z,100.00
2022-07-30T05:25:19.907Z,100.00
2022-07-30T05:27:48.241Z,100.00
2022-07-30T05:30:16.494Z,100.00
2022-07-30T05:32:48.250Z,100.00
2022-07-30T05:35:16.097Z,100.00
2022-07-30T05:37:45.142Z,100.00
2022-07-30T05:40:13.556Z,100.00
2022-07-30T05:43:07.856Z,100.00
2022-07-30T05:45:35.431Z,100.00
2022-07-30T05:48:03.140Z,100.00
2022-07-30T05:50:30.891Z,100.00
2022-07-30T05:52:59.915Z,100.00
2022-07-30T05:55:47.415Z,100.00
2022-07-30T05:58:36.675Z,100.00
2022-07-30T06:01:04.318Z,100.00
2022-07-30T06:03:33.850Z,100.00
2022-07-30T06:06:23.335Z,100.00
2022-07-30T06:08:52.755Z,100.00
2022-07-30T06:11:20.519Z,100.00
2022-07-30T06:13:52.024Z,100.00
2022-07-30T06:16:19.964Z,100.00
2022-07-30T06:18:47.546Z,100.00
2022-07-30T06:21:25.781Z,100.00
2022-07-30T06:24:09.800Z,100.00
2022-07-30T06:26:41.322Z,99.24
2022-07-30T06:29:09.619Z,98.68
2022-07-30T06:31:41.481Z,97.72
2022-07-30T06:34:10.953Z,94.46
2022-07-30T06:36:41.956Z,94.29
2022-07-30T06:39:53.849Z,95.24
2022-07-30T06:42:24.454Z,94.75
2022-07-30T06:45:27.182Z,94.79
2022-07-30T06:48:14.455Z,95.01
2022-07-30T06:50:42.726Z,94.50
2022-07-30T06:53:11.087Z,92.23
2022-07-30T06:56:08.982Z,92.33
2022-07-30T06:58:47.095Z,93.54
2022-07-30T07:01:33.650Z,89.88
2022-07-30T07:04:01.765Z,86.58
2022-07-30T07:06:29.351Z,86.61
2022-07-30T07:08:57.163Z,86.05
2022-07-30T07:11:34.246Z,88.76
2022-07-30T07:14:06.858Z,88.78
2022-07-30T07:16:36.167Z,86.86
2022-07-30T07:20:00.336Z,90.68
2022-07-30T07:22:11.893Z,89.98
2022-07-30T07:24:39.634Z,88.42
2022-07-30T07:27:15.358Z,84.57
2022-07-30T07:30:05.673Z,82.60
2022-07-30T07:32:32.549Z,73.84
2022-07-30T07:35:00.105Z,77.48
2022-07-30T07:37:27.814Z,76.69
2022-07-30T07:39:56.110Z,77.89
2022-07-30T07:42:25.157Z,73.08
2022-07-30T07:44:53.967Z,69.03
2022-07-30T07:47:21.573Z,70.44
2022-07-30T07:50:04.302Z,67.34
2022-07-30T07:52:31.967Z,65.55
2022-07-30T07:54:59.470Z,65.43
2022-07-30T07:57:31.350Z,61.99
2022-07-30T07:59:59.443Z,62.20
2022-07-30T08:02:28.227Z,60.92
2022-07-30T08:05:00.860Z,61.03
2022-07-30T08:07:57.622Z,62.32
2022-07-30T08:10:57.145Z,64.59
2022-07-30T08:13:48.865Z,62.99
2022-07-30T08:16:38.627Z,62.48
2022-07-30T08:19:27.153Z,62.26
2022-07-30T08:22:23.910Z,62.38
2022-07-30T08:24:51.475Z,62.21
2022-07-30T08:27:19.125Z,59.60
2022-07-30T08:29:48.129Z,57.76
2022-07-30T08:32:18.517Z,58.61
2022-07-30T08:34:47.079Z,57.74
2022-07-30T08:37:15.729Z,55.84
2022-07-30T08:39:43.462Z,56.97
2022-07-30T08:42:11.221Z,56.62
2022-07-30T08:44:39.154Z,55.60
2022-07-30T08:47:09.044Z,57.69
2022-07-30T08:49:55.745Z,57.32
2022-07-30T08:52:27.702Z,58.87
2022-07-30T08:55:01.835Z,55.81
2022-07-30T08:57:30.878Z,53.55
2022-07-30T09:00:01.590Z,56.44
2022-07-30T09:02:32.563Z,54.86
2022-07-30T09:05:03.754Z,57.09
2022-07-30T09:07:33.483Z,55.92
2022-07-30T09:10:02.056Z,54.95
2022-07-30T09:12:35.672Z,55.18
2022-07-30T09:15:10.116Z,57.69
2022-07-30T09:17:51.097Z,59.66
2022-07-30T09:20:20.109Z,54.40
2022-07-30T09:22:50.107Z,53.89
2022-07-30T09:25:45.842Z,54.35
2022-07-30T09:28:34.194Z,56.51
2022-07-30T09:31:24.905Z,57.09
2022-07-30T09:34:27.081Z,52.36
2022-07-30T09:37:01.501Z,55.09
2022-07-30T09:39:59.493Z,57.38
2022-07-30T09:43:07.136Z,57.44
2022-07-30T09:45:35.558Z,57.78
2022-07-30T09:48:04.098Z,55.47
2022-07-30T09:50:33.314Z,53.09
2022-07-30T09:53:08.054Z,54.87
2022-07-30T09:55:41.885Z,52.54
2022-07-30T09:58:13.047Z,56.45
2022-07-30T10:00:48.431Z,57.57
2022-07-30T10:03:46.607Z,56.66
2022-07-30T10:06:38.077Z,60.54
2022-07-30T10:09:27.320Z,58.00
2022-07-30T10:11:55.696Z,57.07
2022-07-30T10:14:31.346Z,51.96
2022-07-30T10:17:00.370Z,51.50
2022-07-30T10:19:40.106Z,55.59
2022-07-30T10:22:29.689Z,52.74
2022-07-30T10:25:19.406Z,53.76
2022-07-30T10:28:07.019Z,53.54
2022-07-30T10:30:34.873Z,47.86
2022-07-30T10:33:06.316Z,49.68
2022-07-30T10:35:38.333Z,50.88
2022-07-30T10:38:13.974Z,51.79
2022-07-30T10:40:49.749Z,52.04
2022-07-30T10:43:36.184Z,54.48
2022-07-30T10:46:09.202Z,51.93
2022-07-30T10:48:48.180Z,54.54
2022-07-30T10:51:25.344Z,49.60
2022-07-30T10:54:03.494Z,49.37
2022-07-30T10:56:31.086Z,51.29
2022-07-30T10:59:03.340Z,52.61
2022-07-30T11:02:07.651Z,47.57
2022-07-30T11:04:35.512Z,50.02
2022-07-30T11:07:29.464Z,50.90
2022-07-30T11:10:08.759Z,50.40
2022-07-30T11:12:54.373Z,50.43
2022-07-30T11:15:22.645Z,53.06
2022-07-30T11:18:11.400Z,57.17
2022-07-30T11:20:40.598Z,51.26
2022-07-30T11:23:14.265Z,52.56
2022-07-30T11:25:51.185Z,53.30
2022-07-30T11:28:37.453Z,49.15
2022-07-30T11:31:10.086Z,50.97
2022-07-30T11:33:39.147Z,50.63
2022-07-30T11:36:10.634Z,48.27
2022-07-30T11:38:59.934Z,48.30
2022-07-30T11:41:36.094Z,48.14
2022-07-30T11:44:29.277Z,48.61
2022-07-30T11:46:57.029Z,50.49
2022-07-30T11:49:24.597Z,48.86
2022-07-30T11:51:52.219Z,49.66
2022-07-30T11:54:19.803Z,49.54
2022-07-30T11:56:53.187Z,46.81
2022-07-30T11:59:20.806Z,46.73
2022-07-30T12:01:52.801Z,44.99
2022-07-30T12:04:20.588Z,46.75
2022-07-30T12:06:49.182Z,48.17
2022-07-30T12:09:23.598Z,44.82
2022-07-30T12:11:57.048Z,47.98
2022-07-30T12:14:24.690Z,50.21
2022-07-30T12:16:54.047Z,50.17
2022-07-30T12:19:21.826Z,47.61
2022-07-30T12:21:53.315Z,45.70
2022-07-30T12:24:26.434Z,44.58
2022-07-30T12:26:54.211Z,43.10
2022-07-30T12:29:23.005Z,46.12
2022-07-30T12:31:53.445Z,45.89
2022-07-30T12:34:21.841Z,44.54
2022-07-30T12:36:49.485Z,43.64
2022-07-30T12:39:21.129Z,44.03
2022-07-30T12:41:50.391Z,44.79
2022-07-30T12:44:38.625Z,43.47
2022-07-30T12:47:07.718Z,44.19
2022-07-30T12:49:36.583Z,41.41
2022-07-30T12:52:13.268Z,41.98
2022-07-30T12:54:46.146Z,44.64
2022-07-30T12:57:13.633Z,41.62
2022-07-30T12:59:42.478Z,43.68
2022-07-30T13:02:10.017Z,43.69
2022-07-30T13:04:59.160Z,45.63
2022-07-30T13:07:53.936Z,41.30
2022-07-30T13:10:21.669Z,41.03
2022-07-30T13:12:49.167Z,41.55
2022-07-30T13:15:22.003Z,43.98
2022-07-30T13:17:50.296Z,46.99
2022-07-30T13:20:18.435Z,47.76
2022-07-30T13:22:46.306Z,47.18
2022-07-30T13:25:14.091Z,42.33
2022-07-30T13:27:41.561Z,42.29
2022-07-30T13:30:10.560Z,44.71
2022-07-30T13:32:39.447Z,45.88
2022-07-30T13:35:07.688Z,48.31
2022-07-30T13:37:37.616Z,49.29
2022-07-30T13:40:06.893Z,50.79
2022-07-30T13:42:34.847Z,50.78
2022-07-30T13:45:02.457Z,52.91
2022-07-30T13:47:29.955Z,49.01
2022-07-30T13:49:58.779Z,47.77
2022-07-30T13:52:26.580Z,47.23
2022-07-30T13:54:54.464Z,48.06
2022-07-30T13:57:22.020Z,48.02
2022-07-30T13:59:49.625Z,50.37
2022-07-30T14:02:17.501Z,51.70
2022-07-30T14:04:45.077Z,53.20
2022-07-30T14:07:13.965Z,54.44
2022-07-30T14:09:47.056Z,55.10
2022-07-30T14:12:16.049Z,55.32
2022-07-30T14:14:43.582Z,55.21
2022-07-30T14:17:11.155Z,56.70
2022-07-30T14:19:41.196Z,55.18
2022-07-30T14:22:08.931Z,55.22
2022-07-30T14:24:37.725Z,56.10
2022-07-30T14:27:05.969Z,55.93
2022-07-30T14:29:33.842Z,56.15
2022-07-30T14:32:01.406Z,56.76
2022-07-30T14:34:29.105Z,55.72
2022-07-30T14:36:56.631Z,55.50
2022-07-30T14:39:24.893Z,55.53
2022-07-30T14:41:55.781Z,55.62
2022-07-30T14:44:23.896Z,59.64
2022-07-30T14:46:52.663Z,56.73
2022-07-30T14:49:20.780Z,55.63
2022-07-30T14:51:48.500Z,55.46
2022-07-30T14:54:16.498Z,55.45
2022-07-30T14:56:44.060Z,54.23
2022-07-30T14:59:14.355Z,55.90
2022-07-30T15:01:42.154Z,50.76
2022-07-30T15:04:11.402Z,51.47
2022-07-30T15:06:40.708Z,48.68
2022-07-30T15:09:08.831Z,49.65
2022-07-30T15:12:04.310Z,47.84
2022-07-30T15:14:26.875Z,50.00
2022-07-30T15:16:59.374Z,47.80
2022-07-30T15:19:30.938Z,46.38
2022-07-30T15:21:58.895Z,43.57
2022-07-30T15:24:26.976Z,44.66
2022-07-30T15:26:55.855Z,46.93
2022-07-30T15:29:27.190Z,44.75
2022-07-30T15:31:54.733Z,45.70
2022-07-30T15:34:22.393Z,46.73
2022-07-30T15:36:49.879Z,45.87
2022-07-30T15:39:17.479Z,45.73
2022-07-30T15:41:45.988Z,44.93
2022-07-30T15:44:14.750Z,46.06
2022-07-30T15:46:43.574Z,46.40
2022-07-30T15:49:11.167Z,48.06
2022-07-30T15:51:43.725Z,46.08
2022-07-30T15:54:11.306Z,46.23
2022-07-30T15:56:38.921Z,44.54
2022-07-30T15:59:07.081Z,44.21
2022-07-30T16:01:34.666Z,43.29
2022-07-30T16:04:03.930Z,44.02
2022-07-30T16:06:32.324Z,41.44
2022-07-30T16:09:00.163Z,42.47
2022-07-30T16:11:27.730Z,44.31
2022-07-30T16:14:00.558Z,42.04
2022-07-30T16:16:28.201Z,42.38
2022-07-30T16:18:55.880Z,43.79
2022-07-30T16:21:24.795Z,45.44
2022-07-30T16:23:53.582Z,47.90
2022-07-30T16:26:21.577Z,46.00
2022-07-30T16:28:49.304Z,46.02
2022-07-30T16:31:17.072Z,48.25
2022-07-30T16:33:44.868Z,48.72
2022-07-30T16:36:14.167Z,51.08
2022-07-30T16:38:43.079Z,50.07
2022-07-30T16:41:13.366Z,49.48
2022-07-30T16:43:41.832Z,49.37
2022-07-30T16:46:10.803Z,49.23
2022-07-30T16:48:38.313Z,49.79
2022-07-30T16:51:06.942Z,54.66
2022-07-30T16:53:36.277Z,50.25
2022-07-30T16:56:05.866Z,49.59
2022-07-30T16:58:33.699Z,51.57
2022-07-30T17:01:01.507Z,52.93
2022-07-30T17:03:29.143Z,53.88
2022-07-30T17:05:56.655Z,54.57
2022-07-30T17:08:24.656Z,56.59
2022-07-30T17:10:52.926Z,51.17
2022-07-30T17:13:22.617Z,51.67
2022-07-30T17:15:50.213Z,50.26
2022-07-30T17:18:17.869Z,54.38
2022-07-30T17:20:45.470Z,52.17
2022-07-30T17:23:13.566Z,51.36
2022-07-30T17:25:41.103Z,51.90
2022-07-30T17:28:08.701Z,52.22
2022-07-30T17:30:37.569Z,50.30
2022-07-30T17:33:06.218Z,51.43
2022-07-30T17:35:34.133Z,52.11
2022-07-30T17:38:01.973Z,49.72
2022-07-30T17:40:31.598Z,50.44
2022-07-30T17:43:03.390Z,52.50
2022-07-30T17:45:31.583Z,55.88
2022-07-30T17:48:01.425Z,51.31
2022-07-30T17:50:29.320Z,51.00
2022-07-30T17:52:56.888Z,52.08
2022-07-30T17:55:24.634Z,56.62
2022-07-30T17:57:52.192Z,56.71
2022-07-30T18:00:19.741Z,56.38
2022-07-30T18:02:47.285Z,51.87
2022-07-30T18:05:16.311Z,57.64
2022-07-30T18:07:44.672Z,56.49
2022-07-30T18:10:12.716Z,53.15
2022-07-30T18:12:48.899Z,55.70
2022-07-30T18:15:17.439Z,57.89
2022-07-30T18:17:45.585Z,58.03
2022-07-30T18:20:13.286Z,59.16
2022-07-30T18:22:42.250Z,58.23
2022-07-30T18:25:18.760Z,62.84
2022-07-30T18:27:47.238Z,59.86
2022-07-30T18:30:15.230Z,62.70
2022-07-30T18:32:42.765Z,62.02
2022-07-30T18:35:14.165Z,63.87
2022-07-30T18:37:45.767Z,62.71
2022-07-30T18:40:14.922Z,61.84
2022-07-30T18:42:42.999Z,64.50
2022-07-30T18:45:13.773Z,64.60
2022-07-30T18:47:41.818Z,65.46
2022-07-30T18:50:09.956Z,65.95
2022-07-30T18:52:37.583Z,66.69
2022-07-30T18:55:08.179Z,67.17
2022-07-30T18:57:36.154Z,67.12
2022-07-30T19:00:05.777Z,67.70
2022-07-30T19:02:35.481Z,69.16
2022-07-30T19:05:03.027Z,69.34
2022-07-30T19:07:30.832Z,69.19
2022-07-30T19:10:20.194Z,69.21
2022-07-30T19:12:47.731Z,69.39
2022-07-30T19:15:15.371Z,70.08
2022-07-30T19:17:46.280Z,70.74
2022-07-30T19:20:14.531Z,72.38
2022-07-30T19:22:46.693Z,72.22
2022-07-30T19:25:14.720Z,72.50
2022-07-30T19:27:43.811Z,72.36
2022-07-30T19:30:12.566Z,74.76
2022-07-30T19:32:40.391Z,76.12
2022-07-30T19:35:13.273Z,75.58
2022-07-30T19:37:42.289Z,75.25
2022-07-30T19:40:10.920Z,75.14
2022-07-30T19:42:41.529Z,74.33
2022-07-30T19:45:13.330Z,73.87
2022-07-30T19:47:42.417Z,73.66
2022-07-30T19:50:11.535Z,70.66
2022-07-30T19:52:39.496Z,70.82
2022-07-30T19:55:30.860Z,68.17
2022-07-30T19:57:56.195Z,69.63
2022-07-30T20:00:26.351Z,70.70
2022-07-30T20:02:54.120Z,70.89
2022-07-30T20:05:24.678Z,70.74
2022-07-30T20:07:52.713Z,70.89
2022-07-30T20:10:20.301Z,72.11
2022-07-30T20:12:49.658Z,72.97
2022-07-30T20:15:18.298Z,73.09
2022-07-30T20:17:47.210Z,72.86
2022-07-30T20:20:14.845Z,74.30
2022-07-30T20:22:42.445Z,73.25
2022-07-30T20:25:11.113Z,73.29
2022-07-30T20:27:41.265Z,72.84
2022-07-30T20:30:11.921Z,73.94
2022-07-30T20:32:44.671Z,74.09
2022-07-30T20:35:15.894Z,74.56
2022-07-30T20:37:55.596Z,74.19
2022-07-30T20:40:26.824Z,75.34
2022-07-30T20:42:55.009Z,75.91
2022-07-30T20:45:24.766Z,76.99
2022-07-30T20:47:57.369Z,76.55
2022-07-30T20:50:30.636Z,74.26
2022-07-30T20:52:59.165Z,75.05
2022-07-30T20:55:26.810Z,75.48
2022-07-30T20:57:58.075Z,75.97
2022-07-30T21:00:49.817Z,75.39
2022-07-30T21:03:21.480Z,75.90
2022-07-30T21:05:52.866Z,75.62
2022-07-30T21:08:21.168Z,74.14
2022-07-30T21:10:53.074Z,74.79
2022-07-30T21:13:22.859Z,73.89
2022-07-30T21:16:03.059Z,74.53
2022-07-30T21:18:31.604Z,75.12
2022-07-30T21:21:04.976Z,74.96
2022-07-30T21:23:33.539Z,75.20
2022-07-30T21:26:04.936Z,74.60
2022-07-30T21:28:35.136Z,73.05
2022-07-30T21:31:03.970Z,70.99
2022-07-30T21:33:34.787Z,70.31
2022-07-30T21:36:03.782Z,69.83
2022-07-30T21:38:31.764Z,69.83
2022-07-30T21:41:00.141Z,71.41
2022-07-30T21:43:29.982Z,70.23
2022-07-30T21:45:58.117Z,69.55
2022-07-30T21:48:26.014Z,67.80
2022-07-30T21:50:54.419Z,68.09
2022-07-30T21:53:29.963Z,68.44
2022-07-30T21:56:12.067Z,68.37
2022-07-30T21:58:40.784Z,68.55
2022-07-30T22:01:17.467Z,68.22
2022-07-30T22:04:03.379Z,67.62
2022-07-30T22:06:34.352Z,69.13
2022-07-30T22:09:18.322Z,70.89
2022-07-30T22:11:50.919Z,69.64
2022-07-30T22:14:18.452Z,72.28
2022-07-30T22:16:46.996Z,71.49
2022-07-30T22:19:15.025Z,69.96
2022-07-30T22:21:42.827Z,69.91
2022-07-30T22:24:29.154Z,70.21
2022-07-30T22:27:00.004Z,70.80
2022-07-30T22:29:34.121Z,70.66
2022-07-30T22:32:03.906Z,71.84
2022-07-30T22:34:31.989Z,71.66
2022-07-30T22:36:59.516Z,71.13
2022-07-30T22:39:31.772Z,70.01
2022-07-30T22:42:00.789Z,69.74
2022-07-30T22:44:28.843Z,70.05
2022-07-30T22:46:56.647Z,70.05
2022-07-30T22:49:46.072Z,70.58
2022-07-30T22:52:21.999Z,70.53
2022-07-30T22:54:55.475Z,71.17
2022-07-30T22:57:23.560Z,71.05
2022-07-30T22:59:58.700Z,74.08
2022-07-30T23:02:28.295Z,75.71
2022-07-30T23:04:56.414Z,77.15
2022-07-30T23:07:44.245Z,77.83
2022-07-30T23:10:20.775Z,78.41
2022-07-30T23:12:50.909Z,78.17
2022-07-30T23:15:19.650Z,77.64
2022-07-30T23:17:47.529Z,77.32
2022-07-30T23:20:17.501Z,76.68
2022-07-30T23:22:45.171Z,77.01
2022-07-30T23:25:13.476Z,79.54
2022-07-30T23:27:43.041Z,80.78
2022-07-30T23:30:12.302Z,81.01
2022-07-30T23:32:40.700Z,83.29
2022-07-30T23:35:09.681Z,82.47
2022-07-30T23:37:47.678Z,83.29
2022-07-30T23:40:17.084Z,85.17
2022-07-30T23:42:45.952Z,85.77
2022-07-30T23:45:14.493Z,86.20
2022-07-30T23:48:02.081Z,86.03
2022-07-30T23:50:30.586Z,86.10
2022-07-30T23:52:58.297Z,86.98
2022-07-30T23:55:26.899Z,85.92
2022-07-30T23:57:55.936Z,85.98
